sensor_id;sensor_type;location;lat;lon;timestamp;P1;durP1;ratioP1;P2;durP2;ratioP2
53108;SDS011;39007;53.090;6.074;2024-02-21T00:00:51;31.77;;;5.43;;
53108;SDS011;39007;53.090;6.074;2024-02-21T00:03:17;30.73;;;5.43;;
53108;SDS011;39007;53.090;6.074;2024-02-21T00:05:44;27.48;;;5.30;;
53108;SDS011;39007;53.090;6.074;2024-02-21T00:08:10;24.58;;;5.45;;
53108;SDS011;39007;53.090;6.074;2024-02-21T00:10:36;29.58;;;5.78;;
53108;SDS011;39007;53.090;6.074;2024-02-21T00:13:03;22.13;;;4.93;;
53108;SDS011;39007;53.090;6.074;2024-02-21T00:15:29;26.75;;;5.07;;
53108;SDS011;39007;53.090;6.074;2024-02-21T00:17:55;25.13;;;5.65;;
53108;SDS011;39007;53.090;6.074;2024-02-21T00:20:21;29.50;;;5.72;;
53108;SDS011;39007;53.090;6.074;2024-02-21T00:22:47;26.65;;;5.10;;
53108;SDS011;39007;53.090;6.074;2024-02-21T00:25:13;27.73;;;5.90;;
53108;SDS011;39007;53.090;6.074;2024-02-21T00:27:39;29.95;;;5.35;;
53108;SDS011;39007;53.090;6.074;2024-02-21T00:30:06;32.08;;;5.78;;
53108;SDS011;39007;53.090;6.074;2024-02-21T00:32:32;29.60;;;5.75;;
53108;SDS011;39007;53.090;6.074;2024-02-21T00:34:59;28.45;;;6.53;;
53108;SDS011;39007;53.090;6.074;2024-02-21T00:37:26;28.35;;;6.50;;
53108;SDS011;39007;53.090;6.074;2024-02-21T00:39:53;36.30;;;7.95;;
53108;SDS011;39007;53.090;6.074;2024-02-21T00:42:19;30.20;;;6.20;;
53108;SDS011;39007;53.090;6.074;2024-02-21T00:44:46;33.88;;;6.28;;
53108;SDS011;39007;53.090;6.074;2024-02-21T00:47:14;28.15;;;6.45;;
53108;SDS011;39007;53.090;6.074;2024-02-21T00:49:40;26.38;;;5.72;;
53108;SDS011;39007;53.090;6.074;2024-02-21T00:52:06;31.55;;;6.38;;
53108;SDS011;39007;53.090;6.074;2024-02-21T00:54:33;36.20;;;6.72;;
53108;SDS011;39007;53.090;6.074;2024-02-21T00:56:59;32.67;;;6.63;;
53108;SDS011;39007;53.090;6.074;2024-02-21T00:59:25;33.72;;;6.63;;
53108;SDS011;39007;53.090;6.074;2024-02-21T01:01:51;34.47;;;6.57;;
53108;SDS011;39007;53.090;6.074;2024-02-21T01:04:17;33.13;;;7.85;;
53108;SDS011;39007;53.090;6.074;2024-02-21T01:06:43;35.30;;;7.43;;
53108;SDS011;39007;53.090;6.074;2024-02-21T01:09:09;31.92;;;7.53;;
53108;SDS011;39007;53.090;6.074;2024-02-21T01:11:35;33.78;;;7.68;;
53108;SDS011;39007;53.090;6.074;2024-02-21T01:14:01;33.60;;;7.95;;
53108;SDS011;39007;53.090;6.074;2024-02-21T01:16:27;31.70;;;8.13;;
53108;SDS011;39007;53.090;6.074;2024-02-21T01:18:53;29.52;;;7.35;;
53108;SDS011;39007;53.090;6.074;2024-02-21T01:21:20;38.47;;;8.38;;
53108;SDS011;39007;53.090;6.074;2024-02-21T01:23:46;37.60;;;9.27;;
53108;SDS011;39007;53.090;6.074;2024-02-21T01:26:12;38.20;;;8.15;;
53108;SDS011;39007;53.090;6.074;2024-02-21T01:28:40;33.15;;;7.40;;
53108;SDS011;39007;53.090;6.074;2024-02-21T01:31:06;39.33;;;8.68;;
53108;SDS011;39007;53.090;6.074;2024-02-21T01:33:32;42.70;;;9.30;;
53108;SDS011;39007;53.090;6.074;2024-02-21T01:36:03;30.98;;;7.70;;
53108;SDS011;39007;53.090;6.074;2024-02-21T01:38:31;42.47;;;7.95;;
53108;SDS011;39007;53.090;6.074;2024-02-21T01:40:58;41.33;;;7.78;;
53108;SDS011;39007;53.090;6.074;2024-02-21T01:43:24;36.08;;;8.20;;
53108;SDS011;39007;53.090;6.074;2024-02-21T01:45:50;39.15;;;7.75;;
53108;SDS011;39007;53.090;6.074;2024-02-21T01:48:20;36.47;;;8.93;;
53108;SDS011;39007;53.090;6.074;2024-02-21T01:50:47;31.42;;;7.22;;
53108;SDS011;39007;53.090;6.074;2024-02-21T01:53:13;39.22;;;7.97;;
53108;SDS011;39007;53.090;6.074;2024-02-21T01:55:44;44.67;;;9.20;;
53108;SDS011;39007;53.090;6.074;2024-02-21T01:58:11;46.67;;;8.73;;
53108;SDS011;39007;53.090;6.074;2024-02-21T02:00:37;34.47;;;7.05;;
53108;SDS011;39007;53.090;6.074;2024-02-21T02:03:04;38.90;;;8.20;;
53108;SDS011;39007;53.090;6.074;2024-02-21T02:05:30;50.22;;;8.40;;
53108;SDS011;39007;53.090;6.074;2024-02-21T02:07:56;34.70;;;6.68;;
53108;SDS011;39007;53.090;6.074;2024-02-21T02:10:22;46.58;;;7.88;;
53108;SDS011;39007;53.090;6.074;2024-02-21T02:12:48;35.83;;;7.05;;
53108;SDS011;39007;53.090;6.074;2024-02-21T02:15:14;48.33;;;8.32;;
53108;SDS011;39007;53.090;6.074;2024-02-21T02:17:40;48.75;;;8.05;;
53108;SDS011;39007;53.090;6.074;2024-02-21T02:20:07;49.70;;;8.05;;
53108;SDS011;39007;53.090;6.074;2024-02-21T02:22:33;39.28;;;8.25;;
53108;SDS011;39007;53.090;6.074;2024-02-21T02:25:02;51.67;;;8.18;;
53108;SDS011;39007;53.090;6.074;2024-02-21T02:27:29;37.88;;;7.07;;
53108;SDS011;39007;53.090;6.074;2024-02-21T02:29:55;46.00;;;8.15;;
53108;SDS011;39007;53.090;6.074;2024-02-21T02:32:21;47.58;;;7.32;;
53108;SDS011;39007;53.090;6.074;2024-02-21T02:34:47;40.63;;;7.70;;
53108;SDS011;39007;53.090;6.074;2024-02-21T02:37:13;40.53;;;8.07;;
53108;SDS011;39007;53.090;6.074;2024-02-21T02:39:39;42.13;;;7.47;;
53108;SDS011;39007;53.090;6.074;2024-02-21T02:42:05;39.67;;;7.45;;
53108;SDS011;39007;53.090;6.074;2024-02-21T02:44:31;45.78;;;8.52;;
53108;SDS011;39007;53.090;6.074;2024-02-21T02:46:57;36.95;;;7.65;;
53108;SDS011;39007;53.090;6.074;2024-02-21T02:49:23;48.72;;;8.23;;
53108;SDS011;39007;53.090;6.074;2024-02-21T02:51:50;35.88;;;7.15;;
53108;SDS011;39007;53.090;6.074;2024-02-21T02:54:16;37.67;;;7.10;;
53108;SDS011;39007;53.090;6.074;2024-02-21T02:56:42;49.15;;;7.53;;
53108;SDS011;39007;53.090;6.074;2024-02-21T02:59:08;37.53;;;6.72;;
53108;SDS011;39007;53.090;6.074;2024-02-21T03:01:34;39.13;;;8.00;;
53108;SDS011;39007;53.090;6.074;2024-02-21T03:04:00;38.67;;;7.78;;
53108;SDS011;39007;53.090;6.074;2024-02-21T03:06:26;36.00;;;7.57;;
53108;SDS011;39007;53.090;6.074;2024-02-21T03:08:53;39.13;;;8.25;;
53108;SDS011;39007;53.090;6.074;2024-02-21T03:11:20;38.97;;;8.02;;
53108;SDS011;39007;53.090;6.074;2024-02-21T03:13:53;32.05;;;7.07;;
53108;SDS011;39007;53.090;6.074;2024-02-21T03:16:20;38.38;;;8.07;;
53108;SDS011;39007;53.090;6.074;2024-02-21T03:18:46;35.88;;;6.85;;
53108;SDS011;39007;53.090;6.074;2024-02-21T03:21:12;37.97;;;7.45;;
53108;SDS011;39007;53.090;6.074;2024-02-21T03:23:38;38.80;;;7.47;;
53108;SDS011;39007;53.090;6.074;2024-02-21T03:26:05;32.72;;;7.40;;
53108;SDS011;39007;53.090;6.074;2024-02-21T03:28:32;48.75;;;8.15;;
53108;SDS011;39007;53.090;6.074;2024-02-21T03:30:58;40.92;;;7.47;;
53108;SDS011;39007;53.090;6.074;2024-02-21T03:33:24;47.15;;;7.45;;
53108;SDS011;39007;53.090;6.074;2024-02-21T03:35:51;38.92;;;7.65;;
53108;SDS011;39007;53.090;6.074;2024-02-21T03:38:17;43.30;;;7.72;;
53108;SDS011;39007;53.090;6.074;2024-02-21T03:40:43;45.78;;;8.48;;
53108;SDS011;39007;53.090;6.074;2024-02-21T03:43:09;39.97;;;8.35;;
53108;SDS011;39007;53.090;6.074;2024-02-21T03:45:35;34.67;;;7.68;;
53108;SDS011;39007;53.090;6.074;2024-02-21T03:48:01;42.55;;;8.90;;
53108;SDS011;39007;53.090;6.074;2024-02-21T03:50:27;40.92;;;8.13;;
53108;SDS011;39007;53.090;6.074;2024-02-21T03:52:54;45.15;;;8.90;;
53108;SDS011;39007;53.090;6.074;2024-02-21T03:55:20;39.45;;;8.38;;
53108;SDS011;39007;53.090;6.074;2024-02-21T03:57:47;43.53;;;9.00;;
53108;SDS011;39007;53.090;6.074;2024-02-21T04:00:13;43.45;;;9.40;;
53108;SDS011;39007;53.090;6.074;2024-02-21T04:02:39;44.63;;;8.90;;
53108;SDS011;39007;53.090;6.074;2024-02-21T04:05:05;43.13;;;8.93;;
53108;SDS011;39007;53.090;6.074;2024-02-21T04:07:36;35.42;;;8.32;;
53108;SDS011;39007;53.090;6.074;2024-02-21T04:10:02;43.97;;;9.07;;
53108;SDS011;39007;53.090;6.074;2024-02-21T04:12:28;53.28;;;9.55;;
53108;SDS011;39007;53.090;6.074;2024-02-21T04:14:54;44.45;;;9.10;;
53108;SDS011;39007;53.090;6.074;2024-02-21T04:17:20;45.78;;;8.77;;
53108;SDS011;39007;53.090;6.074;2024-02-21T04:19:46;55.50;;;8.85;;
53108;SDS011;39007;53.090;6.074;2024-02-21T04:22:12;43.20;;;8.45;;
53108;SDS011;39007;53.090;6.074;2024-02-21T04:24:38;41.97;;;8.60;;
53108;SDS011;39007;53.090;6.074;2024-02-21T04:27:04;41.83;;;8.60;;
53108;SDS011;39007;53.090;6.074;2024-02-21T04:29:30;46.53;;;7.93;;
53108;SDS011;39007;53.090;6.074;2024-02-21T04:31:56;42.03;;;8.88;;
53108;SDS011;39007;53.090;6.074;2024-02-21T04:34:22;41.50;;;7.13;;
53108;SDS011;39007;53.090;6.074;2024-02-21T04:36:49;38.10;;;7.70;;
53108;SDS011;39007;53.090;6.074;2024-02-21T04:39:15;36.65;;;7.28;;
53108;SDS011;39007;53.090;6.074;2024-02-21T04:41:41;43.75;;;8.18;;
53108;SDS011;39007;53.090;6.074;2024-02-21T04:44:07;45.78;;;8.50;;
53108;SDS011;39007;53.090;6.074;2024-02-21T04:46:34;45.40;;;8.90;;
53108;SDS011;39007;53.090;6.074;2024-02-21T04:49:00;40.40;;;8.35;;
53108;SDS011;39007;53.090;6.074;2024-02-21T04:51:26;52.80;;;9.77;;
53108;SDS011;39007;53.090;6.074;2024-02-21T04:53:52;43.58;;;9.05;;
53108;SDS011;39007;53.090;6.074;2024-02-21T04:56:18;37.92;;;7.88;;
53108;SDS011;39007;53.090;6.074;2024-02-21T04:58:44;47.85;;;8.48;;
53108;SDS011;39007;53.090;6.074;2024-02-21T05:01:10;41.63;;;7.35;;
53108;SDS011;39007;53.090;6.074;2024-02-21T05:03:36;40.08;;;7.90;;
53108;SDS011;39007;53.090;6.074;2024-02-21T05:06:02;41.95;;;8.48;;
53108;SDS011;39007;53.090;6.074;2024-02-21T05:08:28;37.05;;;7.45;;
53108;SDS011;39007;53.090;6.074;2024-02-21T05:10:54;38.63;;;7.22;;
53108;SDS011;39007;53.090;6.074;2024-02-21T05:13:20;41.40;;;7.70;;
53108;SDS011;39007;53.090;6.074;2024-02-21T05:15:46;38.55;;;7.90;;
53108;SDS011;39007;53.090;6.074;2024-02-21T05:18:13;35.63;;;7.70;;
53108;SDS011;39007;53.090;6.074;2024-02-21T05:20:39;39.17;;;8.32;;
53108;SDS011;39007;53.090;6.074;2024-02-21T05:23:05;42.50;;;7.97;;
53108;SDS011;39007;53.090;6.074;2024-02-21T05:25:31;45.22;;;8.38;;
53108;SDS011;39007;53.090;6.074;2024-02-21T05:27:57;39.03;;;7.45;;
53108;SDS011;39007;53.090;6.074;2024-02-21T05:30:27;33.30;;;7.97;;
53108;SDS011;39007;53.090;6.074;2024-02-21T05:32:53;33.05;;;7.70;;
53108;SDS011;39007;53.090;6.074;2024-02-21T05:35:19;37.92;;;8.27;;
53108;SDS011;39007;53.090;6.074;2024-02-21T05:37:46;36.10;;;8.35;;
53108;SDS011;39007;53.090;6.074;2024-02-21T05:40:17;38.30;;;7.80;;
53108;SDS011;39007;53.090;6.074;2024-02-21T05:42:43;39.17;;;9.05;;
53108;SDS011;39007;53.090;6.074;2024-02-21T05:45:09;30.33;;;7.97;;
53108;SDS011;39007;53.090;6.074;2024-02-21T05:47:35;41.40;;;9.13;;
53108;SDS011;39007;53.090;6.074;2024-02-21T05:50:01;45.40;;;8.63;;
53108;SDS011;39007;53.090;6.074;2024-02-21T05:52:28;31.40;;;8.38;;
53108;SDS011;39007;53.090;6.074;2024-02-21T05:54:54;37.63;;;8.13;;
53108;SDS011;39007;53.090;6.074;2024-02-21T05:57:20;29.48;;;8.48;;
53108;SDS011;39007;53.090;6.074;2024-02-21T05:59:46;36.78;;;8.40;;
53108;SDS011;39007;53.090;6.074;2024-02-21T06:02:12;42.70;;;9.35;;
53108;SDS011;39007;53.090;6.074;2024-02-21T06:04:38;35.15;;;9.15;;
53108;SDS011;39007;53.090;6.074;2024-02-21T06:07:04;36.88;;;9.07;;
53108;SDS011;39007;53.090;6.074;2024-02-21T06:09:30;37.35;;;9.50;;
53108;SDS011;39007;53.090;6.074;2024-02-21T06:11:57;40.63;;;9.35;;
53108;SDS011;39007;53.090;6.074;2024-02-21T06:14:23;40.35;;;8.77;;
53108;SDS011;39007;53.090;6.074;2024-02-21T06:16:49;43.63;;;9.50;;
53108;SDS011;39007;53.090;6.074;2024-02-21T06:19:15;39.40;;;9.98;;
53108;SDS011;39007;53.090;6.074;2024-02-21T06:21:41;37.45;;;10.65;;
53108;SDS011;39007;53.090;6.074;2024-02-21T06:24:07;39.22;;;9.63;;
53108;SDS011;39007;53.090;6.074;2024-02-21T06:26:33;37.05;;;9.98;;
53108;SDS011;39007;53.090;6.074;2024-02-21T06:28:59;44.08;;;11.07;;
53108;SDS011;39007;53.090;6.074;2024-02-21T06:31:27;45.20;;;11.57;;
53108;SDS011;39007;53.090;6.074;2024-02-21T06:33:53;44.83;;;11.60;;
53108;SDS011;39007;53.090;6.074;2024-02-21T06:36:19;54.72;;;13.43;;
53108;SDS011;39007;53.090;6.074;2024-02-21T06:38:45;61.67;;;14.70;;
53108;SDS011;39007;53.090;6.074;2024-02-21T06:41:18;59.20;;;13.70;;
53108;SDS011;39007;53.090;6.074;2024-02-21T06:43:45;61.25;;;13.73;;
53108;SDS011;39007;53.090;6.074;2024-02-21T06:46:11;71.10;;;14.73;;
53108;SDS011;39007;53.090;6.074;2024-02-21T06:48:37;76.50;;;15.30;;
53108;SDS011;39007;53.090;6.074;2024-02-21T06:51:03;71.28;;;16.40;;
53108;SDS011;39007;53.090;6.074;2024-02-21T06:53:30;75.78;;;17.00;;
53108;SDS011;39007;53.090;6.074;2024-02-21T06:55:56;77.75;;;16.45;;
53108;SDS011;39007;53.090;6.074;2024-02-21T06:58:23;65.30;;;14.70;;
53108;SDS011;39007;53.090;6.074;2024-02-21T07:00:49;74.68;;;16.35;;
53108;SDS011;39007;53.090;6.074;2024-02-21T07:03:15;68.22;;;17.13;;
53108;SDS011;39007;53.090;6.074;2024-02-21T07:05:41;70.05;;;17.67;;
53108;SDS011;39007;53.090;6.074;2024-02-21T07:08:07;75.05;;;17.45;;
53108;SDS011;39007;53.090;6.074;2024-02-21T07:10:33;72.30;;;18.25;;
53108;SDS011;39007;53.090;6.074;2024-02-21T07:12:59;65.35;;;18.13;;
53108;SDS011;39007;53.090;6.074;2024-02-21T07:15:26;57.13;;;17.00;;
53108;SDS011;39007;53.090;6.074;2024-02-21T07:17:53;66.28;;;18.48;;
53108;SDS011;39007;53.090;6.074;2024-02-21T07:20:19;67.72;;;19.20;;
53108;SDS011;39007;53.090;6.074;2024-02-21T07:22:45;68.70;;;18.67;;
53108;SDS011;39007;53.090;6.074;2024-02-21T07:25:11;75.47;;;16.88;;
53108;SDS011;39007;53.090;6.074;2024-02-21T07:27:37;59.33;;;15.63;;
53108;SDS011;39007;53.090;6.074;2024-02-21T07:30:05;67.13;;;15.43;;
53108;SDS011;39007;53.090;6.074;2024-02-21T07:32:31;72.22;;;14.07;;
53108;SDS011;39007;53.090;6.074;2024-02-21T07:34:57;59.88;;;12.98;;
53108;SDS011;39007;53.090;6.074;2024-02-21T07:37:23;53.60;;;12.25;;
53108;SDS011;39007;53.090;6.074;2024-02-21T07:39:49;51.30;;;11.25;;
53108;SDS011;39007;53.090;6.074;2024-02-21T07:42:15;62.72;;;11.48;;
53108;SDS011;39007;53.090;6.074;2024-02-21T07:44:41;49.03;;;10.23;;
53108;SDS011;39007;53.090;6.074;2024-02-21T07:47:07;43.83;;;10.00;;
53108;SDS011;39007;53.090;6.074;2024-02-21T07:49:40;43.58;;;9.05;;
53108;SDS011;39007;53.090;6.074;2024-02-21T07:52:06;32.83;;;8.68;;
53108;SDS011;39007;53.090;6.074;2024-02-21T07:54:32;33.40;;;8.27;;
53108;SDS011;39007;53.090;6.074;2024-02-21T07:56:58;33.50;;;8.18;;
53108;SDS011;39007;53.090;6.074;2024-02-21T07:59:25;30.38;;;8.02;;
53108;SDS011;39007;53.090;6.074;2024-02-21T08:01:51;34.20;;;8.18;;
53108;SDS011;39007;53.090;6.074;2024-02-21T08:04:17;31.30;;;8.00;;
53108;SDS011;39007;53.090;6.074;2024-02-21T08:06:43;25.48;;;7.40;;
53108;SDS011;39007;53.090;6.074;2024-02-21T08:09:10;25.50;;;7.38;;
53108;SDS011;39007;53.090;6.074;2024-02-21T08:11:36;30.63;;;8.48;;
53108;SDS011;39007;53.090;6.074;2024-02-21T08:14:02;30.67;;;9.10;;
53108;SDS011;39007;53.090;6.074;2024-02-21T08:16:29;34.35;;;8.93;;
53108;SDS011;39007;53.090;6.074;2024-02-21T08:18:55;39.65;;;10.35;;
53108;SDS011;39007;53.090;6.074;2024-02-21T08:21:21;33.50;;;10.32;;
53108;SDS011;39007;53.090;6.074;2024-02-21T08:23:47;32.85;;;11.15;;
53108;SDS011;39007;53.090;6.074;2024-02-21T08:26:16;30.45;;;11.93;;
53108;SDS011;39007;53.090;6.074;2024-02-21T08:28:42;31.75;;;12.02;;
53108;SDS011;39007;53.090;6.074;2024-02-21T08:31:08;28.83;;;12.55;;
53108;SDS011;39007;53.090;6.074;2024-02-21T08:33:34;37.05;;;15.70;;
53108;SDS011;39007;53.090;6.074;2024-02-21T08:36:01;40.80;;;16.67;;
53108;SDS011;39007;53.090;6.074;2024-02-21T08:38:28;35.00;;;17.55;;
53108;SDS011;39007;53.090;6.074;2024-02-21T08:40:54;38.85;;;17.60;;
53108;SDS011;39007;53.090;6.074;2024-02-21T08:43:20;36.92;;;18.02;;
53108;SDS011;39007;53.090;6.074;2024-02-21T08:45:46;36.30;;;18.48;;
53108;SDS011;39007;53.090;6.074;2024-02-21T08:48:12;36.65;;;19.15;;
53108;SDS011;39007;53.090;6.074;2024-02-21T08:50:38;38.17;;;18.55;;
53108;SDS011;39007;53.090;6.074;2024-02-21T08:53:05;43.28;;;19.88;;
53108;SDS011;39007;53.090;6.074;2024-02-21T08:55:31;40.92;;;19.67;;
53108;SDS011;39007;53.090;6.074;2024-02-21T08:57:57;38.35;;;20.67;;
53108;SDS011;39007;53.090;6.074;2024-02-21T09:00:23;35.33;;;21.38;;
53108;SDS011;39007;53.090;6.074;2024-02-21T09:02:52;36.92;;;22.88;;
53108;SDS011;39007;53.090;6.074;2024-02-21T09:05:20;39.50;;;24.63;;
53108;SDS011;39007;53.090;6.074;2024-02-21T09:07:47;37.70;;;23.05;;
53108;SDS011;39007;53.090;6.074;2024-02-21T09:10:13;42.05;;;24.25;;
53108;SDS011;39007;53.090;6.074;2024-02-21T09:12:39;36.67;;;23.48;;
53108;SDS011;39007;53.090;6.074;2024-02-21T09:15:05;37.53;;;22.70;;
53108;SDS011;39007;53.090;6.074;2024-02-21T09:17:31;40.13;;;24.40;;
53108;SDS011;39007;53.090;6.074;2024-02-21T09:19:57;43.90;;;23.98;;
53108;SDS011;39007;53.090;6.074;2024-02-21T09:22:28;37.90;;;24.48;;
53108;SDS011;39007;53.090;6.074;2024-02-21T09:24:54;32.92;;;23.65;;
53108;SDS011;39007;53.090;6.074;2024-02-21T09:27:20;32.55;;;21.48;;
53108;SDS011;39007;53.090;6.074;2024-02-21T09:29:47;31.08;;;23.80;;
53108;SDS011;39007;53.090;6.074;2024-02-21T09:32:13;33.70;;;24.02;;
53108;SDS011;39007;53.090;6.074;2024-02-21T09:34:39;34.33;;;22.45;;
53108;SDS011;39007;53.090;6.074;2024-02-21T09:37:05;31.70;;;21.92;;
53108;SDS011;39007;53.090;6.074;2024-02-21T09:39:31;34.00;;;22.10;;
53108;SDS011;39007;53.090;6.074;2024-02-21T09:42:03;29.00;;;21.70;;
53108;SDS011;39007;53.090;6.074;2024-02-21T09:44:33;30.45;;;21.73;;
53108;SDS011;39007;53.090;6.074;2024-02-21T09:47:02;31.90;;;22.08;;
53108;SDS011;39007;53.090;6.074;2024-02-21T09:49:32;28.42;;;20.42;;
53108;SDS011;39007;53.090;6.074;2024-02-21T09:52:00;31.95;;;20.88;;
53108;SDS011;39007;53.090;6.074;2024-02-21T09:54:28;33.38;;;20.88;;
53108;SDS011;39007;53.090;6.074;2024-02-21T09:56:57;29.90;;;19.88;;
53108;SDS011;39007;53.090;6.074;2024-02-21T09:59:24;29.17;;;19.33;;
53108;SDS011;39007;53.090;6.074;2024-02-21T10:01:50;28.42;;;19.55;;
53108;SDS011;39007;53.090;6.074;2024-02-21T10:04:16;28.60;;;19.27;;
53108;SDS011;39007;53.090;6.074;2024-02-21T10:06:44;34.30;;;19.55;;
53108;SDS011;39007;53.090;6.074;2024-02-21T10:09:19;31.83;;;18.83;;
53108;SDS011;39007;53.090;6.074;2024-02-21T10:11:48;29.20;;;18.35;;
53108;SDS011;39007;53.090;6.074;2024-02-21T10:14:15;29.50;;;19.25;;
53108;SDS011;39007;53.090;6.074;2024-02-21T10:16:41;27.48;;;18.00;;
53108;SDS011;39007;53.090;6.074;2024-02-21T10:19:15;26.95;;;19.45;;
53108;SDS011;39007;53.090;6.074;2024-02-21T10:21:41;28.92;;;18.42;;
53108;SDS011;39007;53.090;6.074;2024-02-21T10:24:07;28.70;;;18.30;;
53108;SDS011;39007;53.090;6.074;2024-02-21T10:26:35;27.63;;;18.83;;
53108;SDS011;39007;53.090;6.074;2024-02-21T10:29:03;32.78;;;20.00;;
53108;SDS011;39007;53.090;6.074;2024-02-21T10:31:29;28.00;;;17.77;;
53108;SDS011;39007;53.090;6.074;2024-02-21T10:33:56;27.13;;;18.27;;
53108;SDS011;39007;53.090;6.074;2024-02-21T10:36:23;27.73;;;19.13;;
53108;SDS011;39007;53.090;6.074;2024-02-21T10:38:52;27.40;;;18.73;;
53108;SDS011;39007;53.090;6.074;2024-02-21T10:41:19;26.55;;;17.95;;
53108;SDS011;39007;53.090;6.074;2024-02-21T10:43:50;29.48;;;18.77;;
53108;SDS011;39007;53.090;6.074;2024-02-21T10:46:18;28.35;;;18.55;;
53108;SDS011;39007;53.090;6.074;2024-02-21T10:48:45;30.05;;;19.17;;
53108;SDS011;39007;53.090;6.074;2024-02-21T10:51:18;29.27;;;18.58;;
53108;SDS011;39007;53.090;6.074;2024-02-21T10:58:52;28.20;;;18.13;;
53108;SDS011;39007;53.090;6.074;2024-02-21T11:01:20;28.33;;;18.40;;
53108;SDS011;39007;53.090;6.074;2024-02-21T11:03:47;29.08;;;18.65;;
53108;SDS011;39007;53.090;6.074;2024-02-21T11:06:14;28.27;;;19.58;;
53108;SDS011;39007;53.090;6.074;2024-02-21T11:08:41;30.83;;;19.52;;
53108;SDS011;39007;53.090;6.074;2024-02-21T11:11:07;29.88;;;18.48;;
53108;SDS011;39007;53.090;6.074;2024-02-21T11:13:35;29.42;;;19.17;;
53108;SDS011;39007;53.090;6.074;2024-02-21T11:16:08;30.13;;;18.88;;
53108;SDS011;39007;53.090;6.074;2024-02-21T11:18:35;28.40;;;17.55;;
53108;SDS011;39007;53.090;6.074;2024-02-21T11:21:01;26.60;;;17.85;;
53108;SDS011;39007;53.090;6.074;2024-02-21T11:23:29;26.63;;;18.02;;
53108;SDS011;39007;53.090;6.074;2024-02-21T11:26:08;28.33;;;18.23;;
53108;SDS011;39007;53.090;6.074;2024-02-21T11:28:35;29.08;;;19.33;;
53108;SDS011;39007;53.090;6.074;2024-02-21T11:31:07;27.98;;;19.27;;
53108;SDS011;39007;53.090;6.074;2024-02-21T11:33:34;28.05;;;18.70;;
53108;SDS011;39007;53.090;6.074;2024-02-21T11:36:01;25.17;;;17.27;;
53108;SDS011;39007;53.090;6.074;2024-02-21T11:38:29;24.27;;;17.85;;
53108;SDS011;39007;53.090;6.074;2024-02-21T11:40:55;26.10;;;17.88;;
53108;SDS011;39007;53.090;6.074;2024-02-21T11:43:21;22.88;;;17.88;;
53108;SDS011;39007;53.090;6.074;2024-02-21T11:45:47;25.65;;;17.63;;
53108;SDS011;39007;53.090;6.074;2024-02-21T11:48:15;30.42;;;18.95;;
53108;SDS011;39007;53.090;6.074;2024-02-21T11:50:41;31.48;;;17.65;;
53108;SDS011;39007;53.090;6.074;2024-02-21T11:53:07;29.30;;;18.88;;
53108;SDS011;39007;53.090;6.074;2024-02-21T11:55:34;23.95;;;17.98;;
53108;SDS011;39007;53.090;6.074;2024-02-21T11:58:00;26.35;;;16.13;;
53108;SDS011;39007;53.090;6.074;2024-02-21T12:00:26;25.15;;;16.50;;
53108;SDS011;39007;53.090;6.074;2024-02-21T12:02:52;25.92;;;15.70;;
53108;SDS011;39007;53.090;6.074;2024-02-21T12:05:20;24.02;;;15.52;;
53108;SDS011;39007;53.090;6.074;2024-02-21T12:07:47;21.30;;;15.07;;
53108;SDS011;39007;53.090;6.074;2024-02-21T12:10:13;21.80;;;14.90;;
53108;SDS011;39007;53.090;6.074;2024-02-21T12:12:39;22.15;;;14.63;;
53108;SDS011;39007;53.090;6.074;2024-02-21T12:15:05;24.23;;;13.25;;
53108;SDS011;39007;53.090;6.074;2024-02-21T12:17:35;20.42;;;13.07;;
53108;SDS011;39007;53.090;6.074;2024-02-21T12:20:02;19.80;;;13.13;;
53108;SDS011;39007;53.090;6.074;2024-02-21T12:22:30;18.90;;;13.07;;
53108;SDS011;39007;53.090;6.074;2024-02-21T12:25:02;19.17;;;12.50;;
53108;SDS011;39007;53.090;6.074;2024-02-21T12:27:29;21.60;;;12.40;;
53108;SDS011;39007;53.090;6.074;2024-02-21T12:29:55;18.58;;;12.00;;
53108;SDS011;39007;53.090;6.074;2024-02-21T12:32:21;22.25;;;13.15;;
53108;SDS011;39007;53.090;6.074;2024-02-21T12:34:47;19.77;;;11.88;;
53108;SDS011;39007;53.090;6.074;2024-02-21T12:37:13;19.20;;;12.25;;
53108;SDS011;39007;53.090;6.074;2024-02-21T12:39:41;18.88;;;11.38;;
53108;SDS011;39007;53.090;6.074;2024-02-21T12:42:07;19.15;;;11.27;;
53108;SDS011;39007;53.090;6.074;2024-02-21T12:44:34;19.23;;;10.82;;
53108;SDS011;39007;53.090;6.074;2024-02-21T12:47:00;19.63;;;11.93;;
53108;SDS011;39007;53.090;6.074;2024-02-21T12:49:26;18.83;;;11.60;;
53108;SDS011;39007;53.090;6.074;2024-02-21T12:51:54;20.58;;;11.13;;
53108;SDS011;39007;53.090;6.074;2024-02-21T12:54:21;16.60;;;11.00;;
53108;SDS011;39007;53.090;6.074;2024-02-21T12:56:47;17.65;;;11.48;;
53108;SDS011;39007;53.090;6.074;2024-02-21T12:59:13;20.52;;;12.38;;
53108;SDS011;39007;53.090;6.074;2024-02-21T13:01:39;20.92;;;12.40;;
53108;SDS011;39007;53.090;6.074;2024-02-21T13:04:05;17.00;;;9.40;;
53108;SDS011;39007;53.090;6.074;2024-02-21T13:06:32;14.68;;;10.25;;
53108;SDS011;39007;53.090;6.074;2024-02-21T13:08:58;18.73;;;10.57;;
53108;SDS011;39007;53.090;6.074;2024-02-21T13:11:28;16.95;;;9.23;;
53108;SDS011;39007;53.090;6.074;2024-02-21T13:13:56;14.85;;;9.55;;
53108;SDS011;39007;53.090;6.074;2024-02-21T13:16:22;18.27;;;9.57;;
53108;SDS011;39007;53.090;6.074;2024-02-21T13:18:48;13.50;;;8.43;;
53108;SDS011;39007;53.090;6.074;2024-02-21T13:21:14;11.80;;;8.07;;
53108;SDS011;39007;53.090;6.074;2024-02-21T13:23:40;13.25;;;8.20;;
53108;SDS011;39007;53.090;6.074;2024-02-21T13:26:09;12.95;;;7.70;;
53108;SDS011;39007;53.090;6.074;2024-02-21T13:28:35;12.23;;;6.85;;
53108;SDS011;39007;53.090;6.074;2024-02-21T13:31:01;13.00;;;7.50;;
53108;SDS011;39007;53.090;6.074;2024-02-21T13:33:28;9.90;;;6.70;;
53108;SDS011;39007;53.090;6.074;2024-02-21T13:35:54;11.43;;;6.47;;
53108;SDS011;39007;53.090;6.074;2024-02-21T13:38:20;9.98;;;6.78;;
53108;SDS011;39007;53.090;6.074;2024-02-21T13:40:46;10.52;;;6.90;;
53108;SDS011;39007;53.090;6.074;2024-02-21T13:43:12;11.13;;;6.78;;
53108;SDS011;39007;53.090;6.074;2024-02-21T13:45:38;9.80;;;7.13;;
53108;SDS011;39007;53.090;6.074;2024-02-21T13:48:06;11.95;;;6.85;;
53108;SDS011;39007;53.090;6.074;2024-02-21T13:50:35;11.88;;;7.20;;
53108;SDS011;39007;53.090;6.074;2024-02-21T13:53:08;10.20;;;6.90;;
53108;SDS011;39007;53.090;6.074;2024-02-21T13:55:35;10.38;;;7.07;;
53108;SDS011;39007;53.090;6.074;2024-02-21T13:58:01;11.52;;;7.28;;
53108;SDS011;39007;53.090;6.074;2024-02-21T14:00:28;9.43;;;7.00;;
53108;SDS011;39007;53.090;6.074;2024-02-21T14:02:54;10.52;;;7.15;;
53108;SDS011;39007;53.090;6.074;2024-02-21T14:05:20;11.75;;;7.43;;
53108;SDS011;39007;53.090;6.074;2024-02-21T14:07:46;14.25;;;8.20;;
53108;SDS011;39007;53.090;6.074;2024-02-21T14:10:12;13.00;;;8.10;;
53108;SDS011;39007;53.090;6.074;2024-02-21T14:12:38;12.00;;;7.88;;
53108;SDS011;39007;53.090;6.074;2024-02-21T14:15:05;11.93;;;8.20;;
53108;SDS011;39007;53.090;6.074;2024-02-21T14:17:31;14.40;;;8.30;;
53108;SDS011;39007;53.090;6.074;2024-02-21T14:19:57;13.25;;;7.65;;
53108;SDS011;39007;53.090;6.074;2024-02-21T14:22:23;13.85;;;8.13;;
53108;SDS011;39007;53.090;6.074;2024-02-21T14:24:49;13.45;;;8.20;;
53108;SDS011;39007;53.090;6.074;2024-02-21T14:27:15;13.93;;;8.80;;
53108;SDS011;39007;53.090;6.074;2024-02-21T14:29:42;12.63;;;7.90;;